Flugplatz Weissenhorn (EDNW)

Hier findest Du alle Informationen zum Flugplatz Weissenhorn (EDNW).

Informationen für Piloten zum Flugplatz Weissenhorn

Hier findest Du alle relevanten Informationen, die Du als Pilot benötigst, um Weissenhorn anzufliegen.

Flugplatz: Weissenhorn ICAO-Code: EDNW
Frequenz Turm: 119,425 Mhz GAFOR Gebiet: 72
Frequenz Ground: 119,425 Mhz Mogas: ja
Platzrunde: S 2400 ft Landegebühr: -
Platzhöhe: 1.642 ft Sunrise: 06:56 Uhr UTC
Pisten: 08/26 - 650 m x 30 m, GRAS Sunset: 15:27 Uhr UTC

Mitglieder, die in Weissenhorn fliegen

Flugwetter am Flugplatz Weissenhorn

Die METAR Information stammen aus EDMA (60.27 km entfernt).

METAR Code:
2023/11/04 16:50
EDMA 041650Z 16007KT 9999 -RA SCT049 08/05 Q0987

Flugschulen am Flugplatz Weissenhorn

Am Flugplatz Weissenhorn gibt es leider keine Flugschule.

Benachbarte Flugplätze und Flugschulen

Es gibt 24 weitere Flugplätze in einem Umkreis von 50 km um den Flugplatz Weissenhorn.

Jetzt anmelden

Passwort vergessen

Umfrage Archiv

Wie häufig haltet Ihr die Halbkreisflugregel ein?

Immer!
33.5 %
Eher häufig!
32.3 %
Hin und wieder!
15.2 %
Nie!
11.4 %
Eher selten!
7.6 %
Stimmen: 158 | Diskussion
Anzeige: Roland Aircraft
Statistik Alle Mitglieder

Aktuell sind 4 Besucher online.

Anzeige: EasyVFR